Time;durP1;ratioP1;P1;durP2;ratioP2;P2;SDS_P1;SDS_P2;PMS_P1;PMS_P2;Temp;Humidity;BMP_temperature;BMP_pressure;BME280_temperature;BME280_humidity;BME280_pressure;Samples;Min_cycle;Max_cycle;Signal;HPM_P1;HPM_P2
2023/04/14 00:00:32;;;;;;;3.77;0.70;;;5.90;99.90;;;;;;6283438;22;20479;-90
2023/04/14 00:02:59;;;;;;;5.03;1.10;;;5.90;99.90;;;;;;6309104;22;20018;-91
2023/04/14 00:05:32;;;;;;;4.45;2.50;;;5.90;99.90;;;;;;6309217;22;20022;-91
2023/04/14 00:07:59;;;;;;;1.63;0.55;;;5.90;99.90;;;;;;6309268;22;20019;-92
2023/04/14 00:10:25;;;;;;;4.32;1.05;;;5.90;99.90;;;;;;6309220;22;20019;-92
2023/04/14 00:12:52;;;;;;;3.47;0.88;;;5.90;99.90;;;;;;6308983;22;20015;-91
2023/04/14 00:15:18;;;;;;;5.00;0.75;;;5.80;99.90;;;;;;6308649;22;20513;-90
2023/04/14 00:17:43;;;;;;;6.07;0.93;;;5.80;99.90;;;;;;6308822;22;20446;-91
2023/04/14 00:20:34;;;;;;;3.17;0.80;;;5.80;99.90;;;;;;6309056;22;20272;-91
2023/04/14 00:23:00;;;;;;;4.13;0.60;;;5.80;99.90;;;;;;6282729;22;20026;-90
2023/04/14 00:25:26;;;;;;;3.67;0.87;;;5.80;99.90;;;;;;6257611;22;20015;-90
2023/04/14 00:27:51;;;;;;;3.93;1.00;;;5.80;99.90;;;;;;6283269;22;20054;-91
2023/04/14 00:30:17;;;;;;;4.07;0.90;;;5.80;99.90;;;;;;6283425;22;20023;-90
2023/04/14 00:32:43;;;;;;;2.07;0.70;;;5.80;99.90;;;;;;6336539;22;20014;-89
2023/04/14 00:35:08;;;;;;;2.57;0.60;;;5.80;99.90;;;;;;6336447;22;20447;-90
2023/04/14 00:37:34;;;;;;;2.63;0.90;;;5.80;99.90;;;;;;6308215;22;20712;-90
2023/04/14 00:40:00;;;;;;;4.20;0.80;;;5.80;99.90;;;;;;6308281;22;20347;-90
2023/04/14 00:42:26;;;;;;;2.40;0.90;;;5.80;99.90;;;;;;6282688;22;20026;-89
2023/04/14 00:44:51;;;;;;;4.03;0.83;;;5.80;99.90;;;;;;6282318;22;20261;-87
2023/04/14 00:47:17;;;;;;;2.37;0.87;;;5.90;99.90;;;;;;6256791;22;20049;-87
2023/04/14 00:49:43;;;;;;;2.53;0.83;;;5.80;99.90;;;;;;6256660;22;20053;-87
2023/04/14 00:52:10;;;;;;;2.43;0.70;;;5.70;99.90;;;;;;6307628;22;20011;-89
2023/04/14 00:54:36;;;;;;;3.28;0.65;;;5.60;99.90;;;;;;6307274;22;20015;-88
2023/04/14 00:57:04;;;;;;;2.17;0.60;;;5.50;99.90;;;;;;6281958;22;20018;-88
2023/04/14 00:59:30;;;;;;;2.13;0.52;;;5.20;99.90;;;;;;6307506;22;20018;-91
2023/04/14 01:01:56;;;;;;;2.73;1.27;;;5.10;99.90;;;;;;6307712;22;20026;-88
2023/04/14 01:04:22;;;;;;;2.87;0.60;;;5.00;99.90;;;;;;6281618;22;20352;-89
2023/04/14 01:06:47;;;;;;;4.47;0.90;;;4.90;99.90;;;;;;6256039;22;20023;-88
2023/04/14 01:09:15;;;;;;;3.73;1.20;;;4.80;99.90;;;;;;6307601;22;20015;-91
2023/04/14 01:12:05;;;;;;;2.65;1.02;;;4.80;99.90;;;;;;6281751;22;20056;-89
2023/04/14 01:14:43;;;;;;;2.80;1.10;;;4.80;99.90;;;;;;6281336;22;20026;-88
2023/04/14 01:17:26;;;;;;;4.80;1.85;;;4.80;99.90;;;;;;6335171;22;20073;-88
2023/04/14 01:19:54;;;;;;;2.80;0.68;;;4.90;99.90;;;;;;6307463;22;20019;-90
2023/04/14 01:22:24;;;;;;;1.98;0.77;;;4.90;99.90;;;;;;6307474;22;20451;-88
2023/04/14 01:24:53;;;;;;;4.40;0.82;;;4.90;99.90;;;;;;6281718;22;20097;-89
2023/04/14 01:27:37;;;;;;;3.15;0.88;;;5.00;99.90;;;;;;6335129;22;20442;-90
2023/04/14 01:30:27;;;;;;;3.42;1.00;;;5.00;99.90;;;;;;6335259;22;20038;-87
2023/04/14 01:32:56;;;;;;;1.60;0.77;;;5.00;99.90;;;;;;6307371;22;20432;-88
2023/04/14 01:35:33;;;;;;;3.00;0.85;;;4.90;99.90;;;;;;6307187;22;20015;-88
2023/04/14 01:38:07;;;;;;;2.63;0.80;;;4.90;99.90;;;;;;6307627;22;20019;-89
2023/04/14 01:40:34;;;;;;;3.88;0.82;;;4.80;99.90;;;;;;6307522;22;20023;-89
2023/04/14 01:43:11;;;;;;;3.22;0.80;;;4.70;99.90;;;;;;6230985;22;20026;-90
2023/04/14 01:45:41;;;;;;;3.95;1.30;;;4.70;99.90;;;;;;6308156;22;20026;-90
2023/04/14 01:48:08;;;;;;;2.13;0.63;;;4.60;99.90;;;;;;6308115;22;20018;-91
2023/04/14 01:50:35;;;;;;;;;;;4.50;99.90;;;;;;6335077;22;20026;-92
2023/04/14 01:53:06;;;;;;;2.22;0.57;;;4.40;99.90;;;;;;6308138;22;19914;-88
2023/04/14 01:55:36;;;;;;;4.97;1.17;;;4.30;99.90;;;;;;6308641;22;20026;-91
2023/04/14 01:58:04;;;;;;;3.70;1.10;;;4.30;99.90;;;;;;6337160;22;20425;-91
2023/04/14 02:00:32;;;;;;;2.70;1.33;;;4.30;99.90;;;;;;6309015;22;20073;-89
2023/04/14 02:02:57;;;;;;;4.13;0.90;;;4.30;99.90;;;;;;6282871;22;20416;-88
2023/04/14 02:05:25;;;;;;;3.20;0.87;;;4.40;99.90;;;;;;6283170;22;20014;-89
2023/04/14 02:07:53;;;;;;;4.80;1.08;;;4.40;99.90;;;;;;6233131;22;20015;-91
2023/04/14 02:10:20;;;;;;;2.65;0.80;;;4.30;99.90;;;;;;6309949;22;20094;-89
2023/04/14 02:12:47;;;;;;;;;;;4.20;99.90;;;;;;6259331;22;20019;-90
2023/04/14 02:15:16;;;;;;;2.42;0.70;;;4.10;99.90;;;;;;6314779;22;19925;-89
2023/04/14 02:17:45;;;;;;;2.97;1.00;;;4.00;99.90;;;;;;6325001;22;20014;-89
2023/04/14 02:20:13;;;;;;;3.15;0.85;;;4.00;99.90;;;;;;6288676;22;20061;-90
2023/04/14 02:22:38;;;;;;;2.40;0.98;;;4.00;99.90;;;;;;6310723;22;20003;-89
2023/04/14 02:25:05;;;;;;;4.30;1.00;;;4.00;99.90;;;;;;6312306;22;20018;-88
2023/04/14 02:28:04;;;;;;;2.83;0.90;;;4.10;99.90;;;;;;6273719;22;20015;-89
2023/04/14 02:30:32;;;;;;;4.90;1.10;;;4.20;99.90;;;;;;6309178;22;20015;-87
2023/04/14 02:33:15;;;;;;;5.25;1.13;;;4.30;99.90;;;;;;6282916;22;20034;-88
2023/04/14 02:35:53;;;;;;;3.15;1.15;;;4.40;99.90;;;;;;6336067;22;20019;-87
2023/04/14 02:38:26;;;;;;;;;;;4.40;99.90;;;;;;6283376;22;20023;-89
2023/04/14 02:40:52;;;;;;;5.20;1.20;;;4.50;99.90;;;;;;6336807;22;19980;-89
2023/04/14 02:43:31;;;;;;;2.40;0.90;;;4.50;99.90;;;;;;6283642;22;20447;-90
2023/04/14 02:46:01;;;;;;;5.10;0.95;;;4.60;99.90;;;;;;6285752;22;20100;-88
2023/04/14 02:48:30;;;;;;;3.45;1.00;;;4.60;99.90;;;;;;6310832;22;20018;-88
2023/04/14 02:50:57;;;;;;;3.30;1.20;;;4.60;99.90;;;;;;6285255;22;20030;-88
2023/04/14 02:53:25;;;;;;;4.38;1.00;;;4.70;99.90;;;;;;6310812;22;20019;-90
2023/04/14 02:55:51;;;;;;;1.92;0.73;;;4.70;99.90;;;;;;6311332;22;20019;-89
2023/04/14 02:58:17;;;;;;;4.73;0.90;;;4.70;99.90;;;;;;6285075;22;20487;-89
2023/04/14 03:00:43;;;;;;;3.53;0.80;;;4.60;99.90;;;;;;6284793;22;20015;-90
2023/04/14 03:03:11;;;;;;;4.03;1.17;;;4.50;99.90;;;;;;6311543;22;20089;-89
2023/04/14 03:05:42;;;;;;;3.65;1.00;;;4.40;99.90;;;;;;6286082;22;20015;-88
2023/04/14 03:08:11;;;;;;;4.72;0.90;;;4.30;99.90;;;;;;6285341;22;20019;-90
2023/04/14 03:10:38;;;;;;;2.13;0.70;;;4.20;99.90;;;;;;6310560;22;20015;-89
2023/04/14 03:13:05;;;;;;;3.00;1.10;;;4.10;99.90;;;;;;6338439;22;20018;-88
2023/04/14 03:15:33;;;;;;;2.80;1.00;;;4.10;99.90;;;;;;6284574;22;20046;-88
2023/04/14 03:18:00;;;;;;;2.55;0.90;;;4.20;99.90;;;;;;6285061;22;20531;-88
2023/04/14 03:20:26;;;;;;;4.10;1.00;;;4.20;99.90;;;;;;6284824;22;20023;-88
2023/04/14 03:23:00;;;;;;;3.72;1.02;;;4.20;99.90;;;;;;6284639;22;20042;-88
2023/04/14 03:25:31;;;;;;;3.03;1.05;;;4.20;99.90;;;;;;6260748;22;20071;-89
2023/04/14 03:28:01;;;;;;;3.15;1.20;;;4.20;99.90;;;;;;6337995;22;20358;-88
2023/04/14 03:30:30;;;;;;;5.63;1.05;;;4.20;99.90;;;;;;6310316;22;20079;-88
2023/04/14 03:33:00;;;;;;;2.25;0.95;;;4.20;99.90;;;;;;6337518;22;20011;-89
2023/04/14 03:35:27;;;;;;;5.65;1.05;;;4.10;99.90;;;;;;6284400;22;20011;-87
2023/04/14 03:37:58;;;;;;;3.58;0.95;;;4.10;99.90;;;;;;6252806;22;20015;-90
2023/04/14 03:40:30;;;;;;;4.28;1.30;;;4.00;99.90;;;;;;6253120;22;20424;-90
2023/04/14 03:42:57;;;;;;;2.83;1.02;;;4.00;99.90;;;;;;6253169;22;20011;-90
2023/04/14 03:45:24;;;;;;;;;;;3.90;99.90;;;;;;6253249;22;20019;-89
2023/04/14 03:47:56;;;;;;;3.50;1.10;;;3.90;99.90;;;;;;6253142;22;19919;-88
2023/04/14 03:50:25;;;;;;;3.63;0.90;;;3.90;99.90;;;;;;6253180;22;20017;-89
2023/04/14 03:52:52;;;;;;;6.45;1.55;;;3.90;99.90;;;;;;6278671;22;20015;-90
2023/04/14 03:55:18;;;;;;;4.03;1.15;;;3.90;99.90;;;;;;6253013;22;20022;-90
2023/04/14 03:58:07;;;;;;;3.58;1.20;;;3.90;99.90;;;;;;6252673;22;20050;-88
2023/04/14 04:00:34;;;;;;;3.40;1.00;;;3.90;99.90;;;;;;6252919;22;20019;-91
2023/04/14 04:03:01;;;;;;;5.40;1.23;;;4.00;99.90;;;;;;6277014;22;20080;-89
2023/04/14 04:05:27;;;;;;;5.95;1.30;;;4.00;99.90;;;;;;6278407;22;20015;-90
2023/04/14 04:07:54;;;;;;;3.42;1.40;;;4.00;99.90;;;;;;6252830;22;20091;-89
2023/04/14 04:10:21;;;;;;;2.90;1.08;;;4.10;99.90;;;;;;6304576;22;20021;-89
2023/04/14 04:12:48;;;;;;;3.58;1.27;;;4.10;99.90;;;;;;6306114;22;20019;-88
2023/04/14 04:15:14;;;;;;;2.45;1.10;;;4.20;99.90;;;;;;6305931;22;20068;-90
2023/04/14 04:17:42;;;;;;;4.67;1.33;;;4.20;99.90;;;;;;6252957;22;20463;-90
2023/04/14 04:20:13;;;;;;;3.80;1.00;;;4.20;99.90;;;;;;6305687;22;20265;-87
2023/04/14 04:22:40;;;;;;;3.13;1.20;;;4.20;99.90;;;;;;6253521;22;20012;-89
2023/04/14 04:25:09;;;;;;;2.80;0.90;;;4.20;99.90;;;;;;6252766;22;20019;-89
2023/04/14 04:27:35;;;;;;;4.65;1.35;;;4.20;99.90;;;;;;6304097;22;20047;-88
2023/04/14 04:30:01;;;;;;;3.70;1.23;;;4.20;99.90;;;;;;6278849;22;20318;-88
2023/04/14 04:32:27;;;;;;;3.50;1.17;;;4.30;99.90;;;;;;6228228;22;20090;-88
2023/04/14 04:34:54;;;;;;;6.05;1.17;;;4.20;99.90;;;;;;6252906;22;20024;-90
2023/04/14 04:37:20;;;;;;;4.18;1.38;;;4.20;99.90;;;;;;6279286;22;20023;-90
2023/04/14 04:39:49;;;;;;;4.05;1.20;;;4.20;99.90;;;;;;6284178;22;20019;-88
2023/04/14 04:42:15;;;;;;;3.55;1.20;;;4.20;99.90;;;;;;6285847;22;20394;-90
2023/04/14 04:44:41;;;;;;;2.67;0.93;;;4.20;99.90;;;;;;6288088;22;20015;-90
2023/04/14 04:47:08;;;;;;;6.13;1.53;;;4.20;99.90;;;;;;6307574;22;20079;-89
2023/04/14 04:49:34;;;;;;;5.97;1.40;;;4.10;99.90;;;;;;6312871;22;20025;-89
2023/04/14 05:03:04;;;;;;;3.22;1.25;;;3.90;99.90;;;;;;6237415;22;20050;-91
2023/04/14 05:05:33;;;;;;;3.03;1.30;;;3.90;99.90;;;;;;6162386;23;20060;-90
2023/04/14 05:07:59;;;;;;;3.95;1.63;;;3.90;99.90;;;;;;6188064;23;20020;-89
2023/04/14 05:13:00;;;;;;;3.22;1.20;;;3.90;99.90;;;;;;6367771;22;20022;-89
2023/04/14 05:15:26;;;;;;;3.20;1.03;;;3.90;99.90;;;;;;6209197;22;20040;-88
2023/04/14 05:17:52;;;;;;;3.50;1.10;;;3.90;99.90;;;;;;6209196;22;20021;-88
2023/04/14 05:20:17;;;;;;;2.90;1.47;;;3.90;99.90;;;;;;6234531;22;20099;-88
2023/04/14 05:22:43;;;;;;;4.80;1.50;;;3.90;99.90;;;;;;6210327;22;20085;-90
2023/04/14 05:25:09;;;;;;;4.80;1.40;;;3.90;99.90;;;;;;6184587;22;20029;-87
2023/04/14 05:27:35;;;;;;;4.87;1.30;;;3.90;99.90;;;;;;6209431;22;20015;-88
2023/04/14 05:30:01;;;;;;;3.47;1.33;;;3.90;99.90;;;;;;6233839;22;20053;-88
2023/04/14 05:32:27;;;;;;;4.45;1.50;;;3.90;99.90;;;;;;6233750;22;20392;-88
2023/04/14 05:34:52;;;;;;;4.13;1.57;;;4.00;99.90;;;;;;6208834;22;20054;-88
2023/04/14 05:37:18;;;;;;;4.57;1.40;;;4.00;99.90;;;;;;6208686;22;20320;-90
2023/04/14 05:39:44;;;;;;;4.63;1.70;;;4.10;99.90;;;;;;6209583;22;20010;-89
2023/04/14 05:42:10;;;;;;;5.50;1.50;;;4.10;99.90;;;;;;6208760;22;20458;-85
2023/04/14 05:44:35;;;;;;;6.27;1.60;;;4.10;99.90;;;;;;6368733;22;20010;-86
2023/04/14 05:47:01;;;;;;;4.70;1.60;;;4.20;99.90;;;;;;6233763;22;20014;-86
2023/04/14 05:49:27;;;;;;;4.50;1.63;;;4.30;99.90;;;;;;6209644;22;20022;-83
2023/04/14 05:51:56;;;;;;;5.27;1.77;;;4.30;99.90;;;;;;6232614;22;20015;-86
2023/04/14 05:54:21;;;;;;;6.32;2.03;;;4.40;99.90;;;;;;6182781;22;20067;-84
2023/04/14 05:56:47;;;;;;;5.23;1.47;;;4.50;99.90;;;;;;6235562;22;20365;-86
2023/04/14 05:59:15;;;;;;;5.53;1.40;;;4.50;99.90;;;;;;6368024;22;20022;-85
2023/04/14 06:01:40;;;;;;;5.28;1.55;;;4.60;99.90;;;;;;6232698;22;20014;-85
2023/04/14 06:04:07;;;;;;;3.80;1.50;;;4.70;99.90;;;;;;6232949;22;20019;-86
2023/04/14 06:29:24;;;;;;;4.28;1.60;;;5.50;99.90;;;;;;5091018;27;20457;-39
2023/04/14 06:31:50;;;;;;;5.47;1.63;;;6.80;99.90;;;;;;5091235;28;20056;-39
2023/04/14 06:34:16;;;;;;;5.15;1.55;;;7.50;99.90;;;;;;5073590;28;20041;-40
2023/04/14 06:36:42;;;;;;;5.70;1.60;;;8.10;99.90;;;;;;5089924;28;20044;-40
2023/04/14 06:39:08;;;;;;;3.77;1.47;;;8.70;99.90;;;;;;5091046;28;20067;-40
2023/04/14 06:41:34;;;;;;;3.78;1.58;;;9.30;99.90;;;;;;5091088;28;20055;-40
2023/04/14 06:44:00;;;;;;;4.70;1.60;;;9.90;99.90;;;;;;5090833;28;20052;-40
2023/04/14 06:46:25;;;;;;;3.53;1.50;;;10.70;99.90;;;;;;5089753;28;20044;-40
2023/04/14 06:48:51;;;;;;;4.60;1.53;;;11.60;99.90;;;;;;5091072;28;20429;-40
2023/04/14 06:51:17;;;;;;;4.70;1.53;;;12.30;99.90;;;;;;5090834;28;20044;-40
2023/04/14 06:53:43;;;;;;;4.88;1.30;;;12.70;99.90;;;;;;5090776;28;20507;-40
2023/04/14 06:56:08;;;;;;;3.63;1.27;;;12.90;99.90;;;;;;5090618;28;20040;-40
2023/04/14 06:58:34;;;;;;;5.53;1.30;;;13.10;99.90;;;;;;5090636;28;20403;-40
2023/04/14 07:01:01;;;;;;;4.72;1.50;;;13.30;99.90;;;;;;5090536;28;20078;-40
2023/04/14 07:03:29;;;;;;;2.67;1.30;;;13.20;99.90;;;;;;5090706;28;20067;-40
2023/04/14 07:06:10;;;;;;;3.58;1.08;;;13.10;99.90;;;;;;5089578;28;20079;-40
2023/04/14 07:08:37;;;;;;;5.25;1.20;;;12.70;99.90;;;;;;5090754;28;20036;-40
2023/04/14 07:11:05;;;;;;;3.75;1.00;;;12.70;99.90;;;;;;5090343;28;20544;-40
2023/04/14 07:13:31;;;;;;;5.43;1.13;;;12.80;99.90;;;;;;5089150;28;20437;-40
2023/04/14 07:15:58;;;;;;;3.28;1.58;;;12.90;99.90;;;;;;5090450;28;20040;-40
2023/04/14 07:18:23;;;;;;;3.50;1.10;;;13.10;99.90;;;;;;5090506;28;20126;-40
2023/04/14 07:20:53;;;;;;;3.60;1.00;;;13.40;99.90;;;;;;5089245;28;20542;-40
2023/04/14 07:23:19;;;;;;;2.70;0.90;;;13.40;99.90;;;;;;5090304;28;20051;-40
2023/04/14 07:25:50;;;;;;;5.43;1.20;;;13.30;99.90;;;;;;5090176;28;20044;-40
2023/04/14 07:28:16;;;;;;;2.67;0.82;;;13.40;99.90;;;;;;5089877;28;20060;-40
2023/04/14 07:30:42;;;;;;;3.40;1.20;;;13.80;99.90;;;;;;5090532;28;20051;-40
2023/04/14 07:33:08;;;;;;;3.67;0.98;;;14.00;99.90;;;;;;5089557;28;20135;-40
2023/04/14 07:35:33;;;;;;;5.67;1.40;;;14.20;99.90;;;;;;5090372;28;20091;-39
2023/04/14 07:37:59;;;;;;;2.97;1.20;;;14.30;99.90;;;;;;5090133;28;20074;-40
2023/04/14 07:40:25;;;;;;;5.00;1.10;;;14.10;99.90;;;;;;5078118;28;20052;-40
2023/04/14 07:42:51;;;;;;;2.30;0.70;;;13.90;99.90;;;;;;5076445;28;20091;-40
2023/04/14 07:45:17;;;;;;;4.77;1.17;;;13.60;99.90;;;;;;5076477;28;20083;-40
2023/04/14 07:47:43;;;;;;;3.50;0.80;;;13.20;99.90;;;;;;5076727;28;20119;-40
2023/04/14 07:50:09;;;;;;;5.60;0.90;;;12.80;99.90;;;;;;5076277;28;20470;-40
2023/04/14 07:52:35;;;;;;;4.05;0.93;;;12.50;99.90;;;;;;5076307;28;20044;-40
2023/04/14 07:55:02;;;;;;;4.68;0.80;;;12.20;99.90;;;;;;5076238;28;20048;-40
2023/04/14 07:57:28;;;;;;;2.67;1.00;;;12.00;99.90;;;;;;5076192;28;20049;-40
2023/04/14 07:59:54;;;;;;;4.00;0.80;;;11.80;99.90;;;;;;5076218;28;20048;-40
2023/04/14 08:02:21;;;;;;;3.13;0.83;;;11.60;99.90;;;;;;5075958;28;20049;-40
2023/04/14 08:04:46;;;;;;;3.90;0.98;;;11.50;99.90;;;;;;5075964;28;20051;-40
2023/04/14 08:07:12;;;;;;;4.57;1.07;;;11.40;99.90;;;;;;5075914;28;20040;-40
2023/04/14 08:09:38;;;;;;;2.03;0.63;;;11.30;99.90;;;;;;5075808;28;20491;-40
2023/04/14 08:12:04;;;;;;;3.45;0.70;;;11.30;99.90;;;;;;5075989;28;20755;-40
2023/04/14 08:14:30;;;;;;;2.57;0.90;;;11.20;99.90;;;;;;5074852;28;20079;-40
2023/04/14 08:16:55;;;;;;;3.53;1.13;;;11.20;99.90;;;;;;5075835;28;20074;-39
2023/04/14 08:19:21;;;;;;;6.47;0.70;;;11.20;99.90;;;;;;5074427;28;20052;-40
2023/04/14 08:21:47;;;;;;;3.00;0.77;;;11.20;99.90;;;;;;5075694;28;20066;-40
2023/04/14 08:24:13;;;;;;;1.73;0.50;;;11.20;99.90;;;;;;5075569;28;20156;-40
2023/04/14 08:26:39;;;;;;;3.90;0.57;;;11.20;99.90;;;;;;5075878;28;20056;-40
2023/04/14 08:29:05;;;;;;;5.50;1.02;;;11.20;99.90;;;;;;5075790;28;20107;-40
2023/04/14 08:31:32;;;;;;;3.37;0.60;;;11.20;99.90;;;;;;5075504;28;20079;-39
2023/04/14 08:33:57;;;;;;;4.45;0.93;;;11.20;99.90;;;;;;5075373;28;20105;-40
2023/04/14 08:36:24;;;;;;;2.93;0.80;;;11.20;99.90;;;;;;5075340;28;20459;-40
2023/04/14 08:38:49;;;;;;;1.92;0.50;;;11.20;99.90;;;;;;5075168;28;20598;-40
2023/04/14 08:41:19;;;;;;;3.80;1.00;;;11.30;99.90;;;;;;5074081;28;20048;-40
2023/04/14 08:43:45;;;;;;;6.78;0.90;;;11.30;99.90;;;;;;5075539;28;20053;-40
2023/04/14 08:46:10;;;;;;;4.70;0.77;;;11.30;99.90;;;;;;5074193;28;20056;-40
2023/04/14 08:48:38;;;;;;;4.90;0.67;;;11.30;99.90;;;;;;5074936;28;20041;-40
2023/04/14 08:51:17;;;;;;;3.88;1.15;;;11.30;99.90;;;;;;5074105;28;20407;-40
2023/04/14 08:53:46;;;;;;;4.85;0.80;;;11.30;99.90;;;;;;5074878;28;20131;-40
2023/04/14 08:56:15;;;;;;;5.25;0.93;;;11.40;99.90;;;;;;5074006;28;20508;-40
2023/04/14 08:58:41;;;;;;;3.42;0.60;;;11.40;99.90;;;;;;5074985;28;20052;-40
2023/04/14 09:01:08;;;;;;;3.47;0.65;;;11.50;99.90;;;;;;5074910;28;20044;-40
2023/04/14 09:03:34;;;;;;;5.00;0.75;;;11.50;99.90;;;;;;5074832;28;20079;-40
2023/04/14 09:06:01;;;;;;;4.78;1.00;;;11.50;99.90;;;;;;5073581;28;20056;-40
2023/04/14 09:08:32;;;;;;;5.50;0.70;;;11.60;99.90;;;;;;5073457;28;20113;-40
2023/04/14 09:11:00;;;;;;;3.90;0.73;;;11.60;99.90;;;;;;5073907;28;20102;-40
2023/04/14 09:13:27;;;;;;;3.83;0.80;;;11.70;99.90;;;;;;5073450;28;20423;-40
2023/04/14 09:15:53;;;;;;;3.40;0.55;;;11.70;99.90;;;;;;5074585;28;20051;-40
2023/04/14 09:18:20;;;;;;;4.18;1.05;;;11.70;99.90;;;;;;5074331;28;20044;-40
2023/04/14 09:20:46;;;;;;;;;;;11.70;99.90;;;;;;5074672;28;20413;-40
2023/04/14 09:23:12;;;;;;;5.35;1.25;;;11.80;99.90;;;;;;5074470;28;19921;-40
2023/04/14 09:25:39;;;;;;;2.05;0.50;;;11.90;99.90;;;;;;5074864;28;20114;-40
2023/04/14 09:28:05;;;;;;;3.60;0.70;;;11.90;99.90;;;;;;5073990;28;20052;-40
2023/04/14 09:30:31;;;;;;;3.78;0.80;;;12.00;99.90;;;;;;5073098;28;20109;-40
2023/04/14 09:32:57;;;;;;;4.32;0.88;;;12.00;99.90;;;;;;5073273;28;20052;-40
2023/04/14 09:35:53;;;;;;;4.78;0.70;;;12.10;99.90;;;;;;5072992;28;20051;-40
2023/04/14 09:38:38;;;;;;;3.58;0.70;;;12.00;99.90;;;;;;5069444;28;20059;-40
2023/04/14 09:41:07;;;;;;;3.83;0.88;;;12.20;99.90;;;;;;5074316;28;20052;-40
2023/04/14 09:43:33;;;;;;;4.82;0.70;;;12.20;99.90;;;;;;5074007;28;20036;-40
2023/04/14 09:46:07;;;;;;;3.22;0.70;;;12.20;99.90;;;;;;5073185;28;20127;-40
2023/04/14 09:48:33;;;;;;;3.10;0.80;;;12.20;99.90;;;;;;5073818;28;20483;-40
2023/04/14 09:51:20;;;;;;;;;;;12.20;99.90;;;;;;5073302;28;20079;-40
2023/04/14 09:53:46;;;;;;;2.97;0.70;;;12.20;99.90;;;;;;5073788;28;20417;-40
2023/04/14 09:56:12;;;;;;;3.00;0.90;;;12.30;99.90;;;;;;5073950;28;20044;-40
2023/04/14 09:58:39;;;;;;;1.83;0.63;;;12.40;99.90;;;;;;5073845;28;20086;-40
2023/04/14 10:01:12;;;;;;;1.73;0.63;;;12.50;99.90;;;;;;5074067;28;20106;-41
2023/04/14 10:03:48;;;;;;;2.97;0.93;;;12.60;99.90;;;;;;5073708;28;20074;-40
2023/04/14 10:06:18;;;;;;;2.80;0.60;;;12.70;99.90;;;;;;5073699;28;20048;-40
2023/04/14 10:08:51;;;;;;;3.83;1.00;;;12.80;99.90;;;;;;5073328;28;20186;-40
2023/04/14 10:11:28;;;;;;;1.95;0.60;;;12.90;99.90;;;;;;5073898;28;20048;-40
2023/04/14 10:13:56;;;;;;;5.00;0.95;;;13.00;99.90;;;;;;5056175;28;20048;-40
2023/04/14 10:16:23;;;;;;;1.75;0.57;;;13.00;99.90;;;;;;5072759;28;20051;-40
2023/04/14 10:18:49;;;;;;;;;;;12.90;99.90;;;;;;5073950;28;20071;-41
2023/04/14 10:21:16;;;;;;;2.20;0.63;;;12.90;99.90;;;;;;5072661;28;19921;-40
2023/04/14 10:23:43;;;;;;;3.03;0.57;;;12.90;99.90;;;;;;5072687;28;20048;-41
2023/04/14 10:26:11;;;;;;;3.78;0.70;;;12.90;99.90;;;;;;5073463;28;20041;-40
2023/04/14 10:28:41;;;;;;;2.83;0.60;;;12.90;99.90;;;;;;5073163;28;20135;-40
2023/04/14 10:31:16;;;;;;;4.38;0.90;;;12.90;99.90;;;;;;5072420;28;20072;-40
2023/04/14 10:33:42;;;;;;;4.72;0.98;;;12.90;99.90;;;;;;5072374;28;20102;-40
2023/04/14 10:36:08;;;;;;;2.53;0.90;;;13.00;99.90;;;;;;5072594;28;20044;-40
2023/04/14 10:38:42;;;;;;;4.22;1.05;;;13.10;99.90;;;;;;5073547;28;20040;-41
2023/04/14 10:41:10;;;;;;;3.97;1.30;;;13.30;99.90;;;;;;5072247;28;20495;-40
2023/04/14 10:43:36;;;;;;;9.95;1.40;;;13.30;99.90;;;;;;5072457;28;20051;-41
2023/04/14 10:46:03;;;;;;;5.55;1.23;;;13.10;99.90;;;;;;5073282;28;20509;-41
2023/04/14 10:48:40;;;;;;;3.75;1.00;;;13.00;99.90;;;;;;5072328;28;20502;-40
2023/04/14 10:51:08;;;;;;;3.13;1.17;;;13.00;99.90;;;;;;5072603;28;20044;-40
2023/04/14 10:53:54;;;;;;;3.58;1.13;;;13.10;99.90;;;;;;5073293;28;20314;-40
2023/04/14 10:56:20;;;;;;;4.30;1.30;;;13.30;99.90;;;;;;5073365;28;20044;-40
2023/04/14 10:58:57;;;;;;;5.53;1.50;;;13.30;99.90;;;;;;5073210;28;20044;-40
2023/04/14 11:01:30;;;;;;;5.17;1.57;;;13.50;99.90;;;;;;5073331;28;20056;-40
2023/04/14 11:03:57;;;;;;;3.10;1.00;;;13.70;99.90;;;;;;5072433;28;20291;-40
2023/04/14 11:06:44;;;;;;;2.90;1.10;;;13.70;99.90;;;;;;5073284;28;20071;-40
2023/04/14 11:09:31;;;;;;;5.72;1.42;;;13.80;99.90;;;;;;5071653;28;20053;-40
2023/04/14 11:12:03;;;;;;;5.32;1.60;;;13.80;99.90;;;;;;5073598;28;20055;-40
2023/04/14 11:14:31;;;;;;;3.30;1.38;;;14.00;99.90;;;;;;5074222;28;20037;-40
2023/04/14 11:17:04;;;;;;;4.75;1.33;;;14.10;99.90;;;;;;5076889;28;20062;-40
2023/04/14 11:19:30;;;;;;;4.82;1.60;;;14.20;99.90;;;;;;5092716;28;20136;-40
2023/04/14 11:21:56;;;;;;;6.30;1.48;;;14.40;99.90;;;;;;5075846;28;20475;-40
2023/04/14 11:24:23;;;;;;;6.45;1.65;;;14.60;99.90;;;;;;5075631;28;20048;-41
2023/04/14 11:26:55;;;;;;;3.55;1.23;;;14.60;99.90;;;;;;5077042;28;20059;-40
2023/04/14 11:29:21;;;;;;;4.75;1.25;;;14.50;99.90;;;;;;5076604;28;20506;-40
2023/04/14 11:32:04;;;;;;;6.22;1.67;;;14.50;99.90;;;;;;5076532;28;20049;-40
2023/04/14 11:34:30;;;;;;;2.17;1.00;;;14.30;99.90;;;;;;5076727;28;20040;-40
2023/04/14 11:36:56;;;;;;;4.53;1.52;;;14.30;99.90;;;;;;5076539;28;20098;-40
2023/04/14 11:39:22;;;;;;;3.88;1.50;;;14.40;99.90;;;;;;5076519;28;20040;-40
2023/04/14 11:41:49;;;;;;;3.28;1.23;;;14.30;99.90;;;;;;5075502;28;20056;-40
2023/04/14 11:44:17;;;;;;;2.53;0.88;;;14.10;99.90;;;;;;5076142;28;20049;-40
2023/04/14 11:46:43;;;;;;;3.92;1.20;;;13.90;99.90;;;;;;5076172;28;20066;-40
2023/04/14 11:49:09;;;;;;;4.27;1.20;;;13.70;99.90;;;;;;5076304;28;20123;-40
2023/04/14 11:51:34;;;;;;;3.83;1.23;;;13.60;99.90;;;;;;5076115;28;20289;-40
2023/04/14 11:54:01;;;;;;;5.07;1.10;;;13.50;99.90;;;;;;5076449;28;20060;-40
2023/04/14 11:56:27;;;;;;;2.47;0.90;;;13.50;99.90;;;;;;5076051;28;20036;-40
2023/04/14 11:59:04;;;;;;;3.58;0.98;;;13.70;99.90;;;;;;5076237;28;20441;-40
2023/04/14 12:01:31;;;;;;;5.70;1.20;;;14.00;99.90;;;;;;5076142;28;20055;-40
2023/04/14 12:03:57;;;;;;;4.07;0.93;;;14.20;99.90;;;;;;5076116;28;20510;-40
2023/04/14 12:06:25;;;;;;;3.63;1.02;;;14.40;99.90;;;;;;5076133;28;20128;-40
2023/04/14 12:08:52;;;;;;;3.92;1.00;;;14.40;99.90;;;;;;5075766;28;20074;-41
2023/04/14 12:11:18;;;;;;;10.95;6.15;;;14.60;99.90;;;;;;5074860;28;20063;-40
2023/04/14 12:13:46;;;;;;;2.67;1.17;;;14.80;99.90;;;;;;5074592;28;20441;-40
2023/04/14 12:16:13;;;;;;;2.70;0.95;;;14.90;99.90;;;;;;5074896;28;20348;-40
2023/04/14 12:18:39;;;;;;;3.72;1.33;;;14.80;99.90;;;;;;5075478;28;20484;-40
2023/04/14 12:21:06;;;;;;;3.60;1.02;;;14.60;99.90;;;;;;5075672;28;20051;-40
2023/04/14 12:23:38;;;;;;;4.22;0.80;;;14.60;99.90;;;;;;5075741;28;20040;-40
2023/04/14 12:26:10;;;;;;;3.30;0.90;;;14.60;99.90;;;;;;5075395;28;20048;-39
2023/04/14 12:28:39;;;;;;;3.08;0.90;;;14.60;99.90;;;;;;5075088;28;20521;-40
2023/04/14 12:31:06;;;;;;;3.40;0.80;;;14.60;99.90;;;;;;5075561;28;20052;-40
2023/04/14 12:33:32;;;;;;;2.80;0.75;;;14.60;99.90;;;;;;5075479;28;20530;-39
2023/04/14 12:36:03;;;;;;;3.25;0.93;;;14.50;99.90;;;;;;5074457;28;20479;-40
2023/04/14 12:38:30;;;;;;;2.63;0.60;;;14.40;99.90;;;;;;5074333;28;20057;-40
2023/04/14 12:40:55;;;;;;;3.40;0.82;;;14.50;99.90;;;;;;5075133;28;20057;-41
2023/04/14 12:43:39;;;;;;;3.60;1.10;;;14.70;99.90;;;;;;5075435;28;20432;-40
2023/04/14 12:46:06;;;;;;;3.90;1.27;;;15.00;99.90;;;;;;5075203;28;20040;-40
2023/04/14 12:48:38;;;;;;;2.33;1.00;;;15.10;99.90;;;;;;5075120;28;20044;-40
2023/04/14 12:51:09;;;;;;;3.50;0.60;;;15.30;99.90;;;;;;5075136;28;20102;-40
2023/04/14 12:53:35;;;;;;;2.13;0.40;;;15.50;99.90;;;;;;5075090;28;20088;-41
2023/04/14 12:56:12;;;;;;;1.50;0.57;;;15.50;99.90;;;;;;5074889;28;20106;-40
2023/04/14 12:58:40;;;;;;;3.70;0.80;;;15.40;99.90;;;;;;5075187;28;20170;-40
2023/04/14 13:01:07;;;;;;;2.92;1.08;;;15.30;99.90;;;;;;5073574;28;20056;-40
2023/04/14 13:03:43;;;;;;;0.77;0.30;;;15.30;99.90;;;;;;5074886;28;20059;-40
2023/04/14 13:06:10;;;;;;;2.53;0.73;;;15.40;99.90;;;;;;5075236;28;20395;-40
2023/04/14 13:08:36;;;;;;;3.72;0.60;;;15.50;99.90;;;;;;5074675;28;20040;-40
2023/04/14 13:11:02;;;;;;;3.65;0.80;;;15.40;99.90;;;;;;5074767;28;20049;-40
2023/04/14 13:13:28;;;;;;;2.55;0.70;;;15.20;99.90;;;;;;5074964;28;20044;-40
2023/04/14 13:15:54;;;;;;;3.53;0.85;;;15.20;99.90;;;;;;5073692;28;20123;-40
2023/04/14 13:18:20;;;;;;;0.93;0.47;;;15.30;99.90;;;;;;5073392;28;20053;-40
2023/04/14 13:20:55;;;;;;;3.45;0.80;;;15.50;99.90;;;;;;5074592;28;20082;-40
2023/04/14 13:23:22;;;;;;;2.20;0.50;;;15.70;99.90;;;;;;5073239;28;20487;-40
2023/04/14 13:25:48;;;;;;;1.83;0.70;;;15.80;99.90;;;;;;5074793;28;20084;-40
2023/04/14 13:28:13;;;;;;;2.42;0.63;;;15.90;99.90;;;;;;5073950;28;20064;-40
2023/04/14 13:30:40;;;;;;;2.83;0.70;;;16.00;99.90;;;;;;5074172;28;20040;-40
2023/04/14 13:33:07;;;;;;;1.98;0.60;;;16.00;99.90;;;;;;5074071;28;20415;-40
2023/04/14 13:35:32;;;;;;;1.55;0.75;;;16.10;99.90;;;;;;5074348;28;20052;-40